createdAt,value
2017-02-20T00:00:28.827Z,24.25
2017-02-20T00:01:42.551Z,24.24
2017-02-20T00:02:56.340Z,24.21
2017-02-20T00:04:10.060Z,24.27
2017-02-20T00:05:22.582Z,24.34
2017-02-20T00:06:36.313Z,24.25
2017-02-20T00:07:50.088Z,24.37
2017-02-20T00:09:03.801Z,24.22
2017-02-20T00:10:17.530Z,24.28
2017-02-20T00:11:31.245Z,24.35
2017-02-20T00:12:44.964Z,24.27
2017-02-20T00:13:58.089Z,24.37
2017-02-20T00:15:11.818Z,24.35
2017-02-20T00:16:25.518Z,24.39
2017-02-20T00:17:39.218Z,24.25
2017-02-20T00:18:52.994Z,24.31
2017-02-20T00:20:06.141Z,24.25
2017-02-20T00:21:19.851Z,24.22
2017-02-20T00:22:33.570Z,24.22
2017-02-20T00:23:47.315Z,24.16
2017-02-20T00:25:01.005Z,24.15
2017-02-20T00:26:14.722Z,24.21
2017-02-20T00:27:27.891Z,24.2
2017-02-20T00:28:41.620Z,24.22
2017-02-20T00:29:55.343Z,24.21
2017-02-20T00:31:09.072Z,24.13
2017-02-20T00:32:22.809Z,24.18
2017-02-20T00:33:35.953Z,24.16
2017-02-20T00:34:49.647Z,24.24
2017-02-20T00:36:03.363Z,24.16
2017-02-20T00:37:17.106Z,24.22
2017-02-20T00:38:30.813Z,24.22
2017-02-20T00:39:43.990Z,24.27
2017-02-20T00:40:57.756Z,24.16
2017-02-20T00:42:11.491Z,24.18
2017-02-20T00:43:25.262Z,24.24
2017-02-20T00:44:38.957Z,24.21
2017-02-20T00:45:52.057Z,24.15
2017-02-20T00:47:05.816Z,24.22
2017-02-20T00:48:18.368Z,24.21
2017-02-20T00:49:32.055Z,24.21
2017-02-20T00:50:45.167Z,24.2
2017-02-20T00:51:58.872Z,24.16
2017-02-20T00:53:12.568Z,24.25
2017-02-20T00:54:25.700Z,24.21
2017-02-20T00:55:39.406Z,24.16
2017-02-20T00:56:53.138Z,24.25
2017-02-20T00:58:06.879Z,24.21
2017-02-20T00:59:20.574Z,24.13
2017-02-20T01:00:34.292Z,24.18
2017-02-20T01:01:47.996Z,24.16
2017-02-20T01:03:01.711Z,24.1
2017-02-20T01:04:14.821Z,24.06
2017-02-20T01:05:27.917Z,24.06
2017-02-20T01:06:41.666Z,24.09
2017-02-20T01:07:55.364Z,24.16
2017-02-20T01:09:09.096Z,24.2
2017-02-20T01:10:22.879Z,24.16
2017-02-20T01:11:36.011Z,24.16
2017-02-20T01:12:49.781Z,24.25
2017-02-20T01:14:03.508Z,24.09
2017-02-20T01:15:16.022Z,24.06
2017-02-20T01:16:29.731Z,24.12
2017-02-20T01:17:43.454Z,24.15
2017-02-20T01:18:57.141Z,24.12
2017-02-20T01:20:10.844Z,24.1
2017-02-20T01:21:24.586Z,24.05
2017-02-20T01:22:38.297Z,24.08
2017-02-20T01:23:52.023Z,24
2017-02-20T01:25:05.740Z,24
2017-02-20T01:26:18.898Z,23.98
2017-02-20T01:27:32.645Z,24
2017-02-20T01:28:46.326Z,23.98
2017-02-20T01:30:00.052Z,24.06
2017-02-20T01:31:13.211Z,24.06
2017-02-20T01:32:26.982Z,24.06
2017-02-20T01:33:40.734Z,24.03
2017-02-20T01:34:54.456Z,24.03
2017-02-20T01:36:08.198Z,24
2017-02-20T01:37:21.932Z,24.02
2017-02-20T01:38:35.042Z,24
2017-02-20T01:39:48.186Z,24
2017-02-20T01:41:01.915Z,24.02
2017-02-20T01:42:15.643Z,23.93
2017-02-20T01:43:28.758Z,23.95
2017-02-20T01:44:42.491Z,23.95
2017-02-20T01:45:55.654Z,23.94
2017-02-20T01:47:09.393Z,23.95
2017-02-20T01:48:22.513Z,23.91
2017-02-20T01:49:36.240Z,23.87
2017-02-20T01:50:49.926Z,23.87
2017-02-20T01:52:03.600Z,23.88
2017-02-20T01:53:16.700Z,23.8
2017-02-20T01:54:29.820Z,23.88
2017-02-20T01:55:43.589Z,23.85
2017-02-20T01:56:57.316Z,23.79
2017-02-20T01:58:10.436Z,23.83
2017-02-20T01:59:24.142Z,23.78
2017-02-20T02:00:37.866Z,23.8
2017-02-20T02:01:51.671Z,23.84
2017-02-20T02:03:05.387Z,23.76
2017-02-20T02:04:19.132Z,23.72
2017-02-20T02:05:32.843Z,23.69
2017-02-20T02:06:45.903Z,23.7
2017-02-20T02:07:59.034Z,23.68
2017-02-20T02:09:12.813Z,23.69
2017-02-20T02:10:25.904Z,23.61
2017-02-20T02:11:39.643Z,23.55
2017-02-20T02:12:53.385Z,23.54
2017-02-20T02:14:06.502Z,23.54
2017-02-20T02:15:18.990Z,23.57
2017-02-20T02:16:32.736Z,23.63
2017-02-20T02:17:46.459Z,23.66
2017-02-20T02:19:00.235Z,23.63
2017-02-20T02:20:14.008Z,23.54
2017-02-20T02:21:27.136Z,23.53
2017-02-20T02:22:40.850Z,23.57
2017-02-20T02:23:54.600Z,23.66
2017-02-20T02:25:08.329Z,23.54
2017-02-20T02:26:22.033Z,23.48
2017-02-20T02:27:35.783Z,23.42
2017-02-20T02:28:49.477Z,23.4
2017-02-20T02:30:03.221Z,23.38
2017-02-20T02:31:15.854Z,23.36
2017-02-20T02:32:29.590Z,23.38
2017-02-20T02:33:43.321Z,23.22
2017-02-20T02:34:57.063Z,23.31
2017-02-20T02:36:10.768Z,23.28
2017-02-20T02:37:24.541Z,23.2
2017-02-20T02:38:38.276Z,23.2
2017-02-20T02:39:51.991Z,23.1
2017-02-20T02:41:05.693Z,23.07
2017-02-20T02:42:19.371Z,23.1
2017-02-20T02:43:33.046Z,23.05
2017-02-20T02:44:46.750Z,23.09
2017-02-20T02:46:00.489Z,23.09
2017-02-20T02:47:14.171Z,23.07
2017-02-20T02:48:27.895Z,23.05
2017-02-20T02:49:41.605Z,23.2
2017-02-20T02:50:55.324Z,23.16
2017-02-20T02:52:08.519Z,23.09
2017-02-20T02:53:22.262Z,23.2
2017-02-20T02:54:36.008Z,23.05
2017-02-20T02:55:49.699Z,22.94
2017-02-20T02:57:02.810Z,22.95
2017-02-20T02:58:16.500Z,22.97
2017-02-20T02:59:30.227Z,23
2017-02-20T03:00:43.959Z,23
2017-02-20T03:01:57.639Z,22.97
2017-02-20T03:03:10.762Z,23.02
2017-02-20T03:04:24.491Z,23.04
2017-02-20T03:05:37.656Z,23.04
2017-02-20T03:06:51.378Z,23
2017-02-20T03:08:05.065Z,23.05
2017-02-20T03:09:18.828Z,23.04
2017-02-20T03:10:31.946Z,22.98
2017-02-20T03:11:45.655Z,23.04
2017-02-20T03:12:59.361Z,23
2017-02-20T03:14:13.079Z,23
2017-02-20T03:15:26.807Z,23
2017-02-20T03:16:40.543Z,22.92
2017-02-20T03:17:54.272Z,22.83
2017-02-20T03:19:07.395Z,22.9
2017-02-20T03:20:21.130Z,22.79
2017-02-20T03:21:34.854Z,22.73
2017-02-20T03:22:48.599Z,22.77
2017-02-20T03:24:01.736Z,22.8
2017-02-20T03:25:14.262Z,22.67
2017-02-20T03:26:28.007Z,22.75
2017-02-20T03:27:41.746Z,22.73
2017-02-20T03:28:55.523Z,22.72
2017-02-20T03:30:08.620Z,22.65
2017-02-20T03:31:22.339Z,22.7
2017-02-20T03:32:36.057Z,22.65
2017-02-20T03:33:49.802Z,22.73
2017-02-20T03:35:03.493Z,22.68
2017-02-20T03:36:17.206Z,22.68
2017-02-20T03:37:31.000Z,22.77
2017-02-20T03:38:44.748Z,22.75
2017-02-20T03:39:58.507Z,22.7
2017-02-20T03:41:12.215Z,22.72
2017-02-20T03:42:25.320Z,22.73
2017-02-20T03:43:39.046Z,22.65
2017-02-20T03:44:52.772Z,22.73
2017-02-20T03:46:06.497Z,22.7
2017-02-20T03:47:19.637Z,22.62
2017-02-20T03:48:33.494Z,22.6
2017-02-20T03:49:47.276Z,22.52
2017-02-20T03:51:00.969Z,22.52
2017-02-20T03:52:14.102Z,22.57
2017-02-20T03:53:27.834Z,22.54
2017-02-20T03:54:41.568Z,22.45
2017-02-20T03:55:55.281Z,22.46
2017-02-20T03:57:09.018Z,22.43
2017-02-20T03:58:22.738Z,22.47
2017-02-20T03:59:36.430Z,22.39
2017-02-20T04:00:50.205Z,22.43
2017-02-20T04:02:03.326Z,22.31
2017-02-20T04:03:17.093Z,22.35
2017-02-20T04:04:30.781Z,22.35
2017-02-20T04:05:43.897Z,22.3
2017-02-20T04:06:57.614Z,22.24
2017-02-20T04:08:11.300Z,22.25
2017-02-20T04:09:25.024Z,22.27
2017-02-20T04:10:38.734Z,22.21
2017-02-20T04:11:52.446Z,22.24
2017-02-20T04:13:06.198Z,22.24
2017-02-20T04:14:19.341Z,22.15
2017-02-20T04:15:33.053Z,22.25
2017-02-20T04:16:46.784Z,22.07
2017-02-20T04:18:00.509Z,22.07
2017-02-20T04:19:14.255Z,22.17
2017-02-20T04:20:27.955Z,22.07
2017-02-20T04:21:41.688Z,22.14
2017-02-20T04:22:55.407Z,22.05
2017-02-20T04:24:09.139Z,22.18
2017-02-20T04:25:22.274Z,22.18
2017-02-20T04:26:35.429Z,22.15
2017-02-20T04:27:49.155Z,22.1
2017-02-20T04:29:02.907Z,22.07
2017-02-20T04:30:16.667Z,22.06
2017-02-20T04:31:30.379Z,22.05
2017-02-20T04:32:44.108Z,22.09
2017-02-20T04:33:57.810Z,22.17
2017-02-20T04:35:11.509Z,22.09
2017-02-20T04:36:25.248Z,22.06
2017-02-20T04:37:38.999Z,22.12
2017-02-20T04:38:52.744Z,22.12
2017-02-20T04:40:05.877Z,22.07
2017-02-20T04:41:19.614Z,22.09
2017-02-20T04:42:32.762Z,22.07
2017-02-20T04:43:46.489Z,22.09
2017-02-20T04:45:00.217Z,22.07
2017-02-20T04:46:13.941Z,22.07
2017-02-20T04:47:27.062Z,22.09
2017-02-20T04:48:40.188Z,22
2017-02-20T04:49:53.875Z,22.03
2017-02-20T04:51:07.620Z,21.98
2017-02-20T04:52:21.332Z,21.86
2017-02-20T04:53:35.016Z,21.91
2017-02-20T04:54:48.756Z,21.94
2017-02-20T04:56:02.494Z,21.75
2017-02-20T04:57:16.224Z,21.86
2017-02-20T04:58:29.337Z,21.92
2017-02-20T04:59:43.039Z,21.9
2017-02-20T05:00:56.761Z,21.88
2017-02-20T05:02:10.542Z,21.77
2017-02-20T05:03:24.287Z,21.69
2017-02-20T05:04:36.807Z,21.68
2017-02-20T05:05:50.494Z,21.72
2017-02-20T05:07:04.207Z,21.68
2017-02-20T05:08:17.917Z,21.72
2017-02-20T05:09:31.654Z,21.65
2017-02-20T05:10:44.809Z,21.62
2017-02-20T05:11:58.561Z,21.65
2017-02-20T05:13:12.268Z,21.61
2017-02-20T05:14:25.982Z,21.68
2017-02-20T05:15:39.736Z,21.59
2017-02-20T05:16:53.433Z,21.61
2017-02-20T05:18:06.557Z,21.62
2017-02-20T05:19:19.646Z,21.58
2017-02-20T05:20:33.387Z,21.58
2017-02-20T05:21:47.115Z,21.56
2017-02-20T05:23:00.819Z,21.64
2017-02-20T05:24:13.907Z,21.56
2017-02-20T05:25:27.025Z,21.59
2017-02-20T05:26:40.707Z,21.47
2017-02-20T05:27:54.405Z,21.43
2017-02-20T05:29:08.113Z,21.56
2017-02-20T05:30:21.859Z,21.59
2017-02-20T05:31:34.965Z,21.64
2017-02-20T05:32:48.727Z,21.54
2017-02-20T05:34:02.491Z,21.52
2017-02-20T05:35:16.234Z,21.54
2017-02-20T05:36:29.913Z,21.61
2017-02-20T05:37:43.604Z,21.56
2017-02-20T05:38:57.294Z,21.56
2017-02-20T05:40:10.395Z,21.54
2017-02-20T05:41:24.156Z,21.5
2017-02-20T05:42:37.846Z,21.49
2017-02-20T05:43:51.529Z,21.47
2017-02-20T05:45:05.275Z,21.49
2017-02-20T05:46:17.800Z,21.46
2017-02-20T05:47:31.522Z,21.52
2017-02-20T05:48:45.204Z,21.47
2017-02-20T05:49:58.891Z,21.46
2017-02-20T05:51:12.625Z,21.42
2017-02-20T05:52:26.334Z,21.37
2017-02-20T05:53:40.049Z,21.38
2017-02-20T05:54:53.787Z,21.27
2017-02-20T05:56:07.564Z,21.34
2017-02-20T05:57:21.331Z,21.34
2017-02-20T05:58:35.072Z,21.28
2017-02-20T05:59:48.831Z,21.24
2017-02-20T06:01:02.529Z,21.25
2017-02-20T06:02:15.677Z,21.21
2017-02-20T06:03:29.364Z,21.24
2017-02-20T06:04:43.122Z,21.17
2017-02-20T06:05:56.839Z,21.25
2017-02-20T06:07:09.942Z,21.19
2017-02-20T06:08:23.682Z,21.17
2017-02-20T06:09:37.395Z,21.13
2017-02-20T06:10:51.102Z,21.19
2017-02-20T06:12:04.833Z,21.25
2017-02-20T06:13:17.947Z,21.22
2017-02-20T06:14:31.650Z,21.28
2017-02-20T06:15:45.392Z,21.22
2017-02-20T06:16:59.119Z,21.25
2017-02-20T06:18:12.820Z,21.27
2017-02-20T06:19:26.550Z,21.29
2017-02-20T06:20:39.676Z,21.21
2017-02-20T06:21:53.373Z,21.25
2017-02-20T06:23:07.050Z,21.27
2017-02-20T06:24:20.786Z,21.25
2017-02-20T06:25:34.496Z,21.34
2017-02-20T06:26:48.205Z,21.27
2017-02-20T06:28:01.935Z,21.28
2017-02-20T06:29:15.055Z,21.29
2017-02-20T06:30:28.778Z,21.24
2017-02-20T06:31:42.439Z,21.25
2017-02-20T06:32:56.181Z,21.31
2017-02-20T06:34:09.954Z,21.28
2017-02-20T06:35:23.694Z,21.35
2017-02-20T06:36:37.389Z,21.25
2017-02-20T06:37:50.493Z,21.35
2017-02-20T06:39:04.204Z,21.37
2017-02-20T06:40:17.899Z,21.35
2017-02-20T06:41:31.628Z,21.4
2017-02-20T06:42:45.393Z,21.34
2017-02-20T06:43:59.135Z,21.38
2017-02-20T06:45:12.838Z,21.42
2017-02-20T06:46:26.513Z,21.42
2017-02-20T06:47:40.222Z,21.38
2017-02-20T06:48:53.953Z,21.37
2017-02-20T06:50:07.619Z,21.34
2017-02-20T06:51:20.165Z,21.4
2017-02-20T06:52:33.919Z,21.42
2017-02-20T06:53:47.601Z,21.4
2017-02-20T06:55:01.268Z,21.34
2017-02-20T06:56:14.353Z,21.38
2017-02-20T06:57:28.026Z,21.38
2017-02-20T06:58:41.145Z,21.42
2017-02-20T06:59:54.871Z,21.31
2017-02-20T07:01:08.637Z,21.42
2017-02-20T07:02:21.791Z,21.38
2017-02-20T07:03:35.545Z,21.38
2017-02-20T07:04:49.263Z,21.4
2017-02-20T07:06:03.042Z,21.46
2017-02-20T07:07:16.770Z,21.34
2017-02-20T07:08:30.481Z,21.34
2017-02-20T07:09:44.196Z,21.35
2017-02-20T07:10:57.898Z,21.46
2017-02-20T07:12:11.620Z,21.49
2017-02-20T07:13:24.753Z,21.53
2017-02-20T07:14:37.299Z,21.44
2017-02-20T07:15:49.805Z,21.53
2017-02-20T07:17:03.492Z,21.53
2017-02-20T07:18:17.179Z,21.52
2017-02-20T07:19:30.951Z,21.49
2017-02-20T07:20:44.090Z,21.46
2017-02-20T07:21:57.823Z,21.47
2017-02-20T07:23:11.570Z,21.47
2017-02-20T07:24:24.669Z,21.53
2017-02-20T07:25:38.347Z,21.44
2017-02-20T07:26:52.044Z,21.5
2017-02-20T07:28:05.194Z,21.46
2017-02-20T07:29:17.770Z,21.46
2017-02-20T07:30:31.472Z,21.44
2017-02-20T07:31:45.186Z,21.35
2017-02-20T07:32:58.966Z,21.38
2017-02-20T07:34:12.665Z,21.38
2017-02-20T07:35:26.376Z,21.35
2017-02-20T07:36:40.108Z,21.37
2017-02-20T07:37:53.819Z,21.4
2017-02-20T07:39:07.568Z,21.44
2017-02-20T07:40:20.098Z,21.53
2017-02-20T07:41:33.822Z,21.47
2017-02-20T07:42:47.578Z,21.5
2017-02-20T07:44:01.322Z,21.49
2017-02-20T07:45:14.438Z,21.47
2017-02-20T07:46:28.135Z,21.44
2017-02-20T07:47:41.811Z,21.37
2017-02-20T07:48:55.508Z,21.42
2017-02-20T07:50:08.043Z,21.34
2017-02-20T07:51:21.148Z,21.4
2017-02-20T07:52:34.890Z,21.46
2017-02-20T07:53:48.617Z,21.4
2017-02-20T07:55:02.294Z,21.34
2017-02-20T07:56:16.031Z,21.42
2017-02-20T07:57:29.729Z,21.43
2017-02-20T07:58:43.440Z,21.34
2017-02-20T07:59:57.127Z,21.35
2017-02-20T08:01:10.283Z,21.34
2017-02-20T08:02:24.020Z,21.32
2017-02-20T08:03:37.761Z,21.22
2017-02-20T08:04:51.488Z,21.28
2017-02-20T08:06:05.210Z,21.21
2017-02-20T08:07:18.326Z,21.29
2017-02-20T08:08:32.090Z,21.21
2017-02-20T08:09:45.806Z,21.22
2017-02-20T08:10:59.517Z,21.31
2017-02-20T08:12:13.201Z,21.25
2017-02-20T08:13:26.341Z,21.29
2017-02-20T08:14:39.444Z,21.29
2017-02-20T08:15:53.175Z,21.27
2017-02-20T08:17:06.861Z,21.27
2017-02-20T08:18:20.572Z,21.29
2017-02-20T08:19:34.348Z,21.25
2017-02-20T08:20:47.489Z,21.24
2017-02-20T08:22:01.222Z,21.32
2017-02-20T08:23:14.320Z,21.29
2017-02-20T08:24:28.046Z,21.34
2017-02-20T08:25:41.758Z,21.35
2017-02-20T08:26:55.829Z,21.37
2017-02-20T08:28:09.520Z,21.31
2017-02-20T08:29:23.240Z,21.31
2017-02-20T08:30:36.994Z,21.34
2017-02-20T08:31:50.747Z,21.38
2017-02-20T08:33:04.493Z,21.37
2017-02-20T08:34:18.242Z,21.22
2017-02-20T08:35:31.922Z,21.24
2017-02-20T08:36:45.632Z,21.35
2017-02-20T08:37:58.758Z,21.32
2017-02-20T08:39:11.909Z,21.32
2017-02-20T08:40:25.638Z,21.32
2017-02-20T08:41:39.328Z,21.35
2017-02-20T08:42:52.477Z,21.31
2017-02-20T08:44:06.227Z,21.21
2017-02-20T08:45:19.960Z,21.28
2017-02-20T08:46:33.710Z,21.31
2017-02-20T08:47:47.409Z,21.34
2017-02-20T08:49:01.111Z,21.34
2017-02-20T08:50:14.865Z,21.25
2017-02-20T08:51:27.957Z,21.27
2017-02-20T08:52:41.031Z,21.27
2017-02-20T08:53:54.775Z,21.32
2017-02-20T08:55:08.455Z,21.34
2017-02-20T08:56:22.241Z,21.42
2017-02-20T08:57:35.980Z,21.35
2017-02-20T08:58:49.126Z,21.5
2017-02-20T09:00:02.835Z,21.44
2017-02-20T09:01:16.601Z,21.43
2017-02-20T09:02:30.284Z,21.42
2017-02-20T09:03:43.955Z,21.4
2017-02-20T09:04:57.705Z,21.4
2017-02-20T09:06:10.835Z,21.44
2017-02-20T09:07:24.594Z,21.43
2017-02-20T09:08:37.711Z,21.47
2017-02-20T09:09:51.419Z,21.53
2017-02-20T09:11:05.118Z,21.54
2017-02-20T09:12:18.234Z,21.68
2017-02-20T09:13:31.958Z,21.72
2017-02-20T09:14:45.664Z,21.83
2017-02-20T09:15:58.809Z,21.82
2017-02-20T09:17:12.529Z,21.99
2017-02-20T09:18:26.231Z,22.05
2017-02-20T09:19:39.979Z,22.18
2017-02-20T09:20:53.767Z,22.25
2017-02-20T09:22:07.507Z,22.39
2017-02-20T09:23:20.667Z,22.47
2017-02-20T09:24:34.394Z,22.46
2017-02-20T09:25:48.071Z,22.49
2017-02-20T09:27:01.744Z,22.65
2017-02-20T09:28:14.854Z,22.83
2017-02-20T09:29:28.590Z,23.01
2017-02-20T09:30:42.283Z,23.17
2017-02-20T09:31:55.987Z,23.51
2017-02-20T09:33:09.810Z,23.6
2017-02-20T09:34:23.532Z,23.72
2017-02-20T09:35:37.256Z,23.88
2017-02-20T09:36:50.978Z,23.94
2017-02-20T09:38:04.681Z,24.1
2017-02-20T09:39:18.414Z,24.2
2017-02-20T09:40:32.138Z,24.27
2017-02-20T09:41:45.281Z,24.22
2017-02-20T09:42:59.076Z,24.25
2017-02-20T09:44:12.776Z,24.42
2017-02-20T09:45:26.498Z,24.45
2017-02-20T09:46:40.211Z,24.5
2017-02-20T09:47:53.962Z,24.61
2017-02-20T09:49:07.098Z,24.64
2017-02-20T09:50:20.240Z,24.58
2017-02-20T09:51:33.359Z,24.81
2017-02-20T09:52:45.881Z,24.95
2017-02-20T09:53:59.615Z,24.91
2017-02-20T09:55:12.765Z,24.96
2017-02-20T09:56:26.432Z,25.06
2017-02-20T09:57:38.954Z,25.15
2017-02-20T09:58:51.491Z,25.32
2017-02-20T10:00:05.306Z,25.42
2017-02-20T10:01:17.828Z,25.65
2017-02-20T10:02:31.560Z,25.83
2017-02-20T10:03:45.312Z,26.09
2017-02-20T10:04:58.444Z,26.3
2017-02-20T10:06:11.584Z,26.51
2017-02-20T10:07:25.376Z,26.37
2017-02-20T10:08:39.145Z,26.3
2017-02-20T10:09:51.654Z,26.37
2017-02-20T10:11:05.367Z,26.55
2017-02-20T10:12:18.489Z,26.62
2017-02-20T10:13:32.257Z,26.44
2017-02-20T10:14:46.028Z,26.12
2017-02-20T10:15:59.709Z,25.79
2017-02-20T10:17:13.406Z,26.07
2017-02-20T10:18:26.574Z,26.55
2017-02-20T10:19:40.320Z,26.75
2017-02-20T10:20:54.011Z,27
2017-02-20T10:22:07.709Z,27.39
2017-02-20T10:23:21.453Z,27.72
2017-02-20T10:24:35.139Z,28.06
2017-02-20T10:25:48.842Z,28.25
2017-02-20T10:27:02.555Z,27.99
2017-02-20T10:28:16.298Z,28.03
2017-02-20T10:29:30.003Z,28
2017-02-20T10:30:43.132Z,27.67
2017-02-20T10:31:55.681Z,27.51
2017-02-20T10:33:09.394Z,27.47
2017-02-20T10:34:23.094Z,27.36
2017-02-20T10:35:36.805Z,27.44
2017-02-20T10:36:50.559Z,27.31
2017-02-20T10:38:04.315Z,27.34
2017-02-20T10:39:17.458Z,27.19
2017-02-20T10:40:30.619Z,27.28
2017-02-20T10:41:44.322Z,27.41
2017-02-20T10:42:58.061Z,27.7
2017-02-20T10:44:10.600Z,27.75
2017-02-20T10:45:24.303Z,27.32
2017-02-20T10:46:38.035Z,27.36
2017-02-20T10:47:51.724Z,27.41
2017-02-20T10:49:05.468Z,27.65
2017-02-20T10:50:19.229Z,27.55
2017-02-20T10:51:32.363Z,27.72
2017-02-20T10:52:46.098Z,27.44
2017-02-20T10:53:59.818Z,27.43
2017-02-20T10:55:13.524Z,27.07
2017-02-20T10:56:26.648Z,27.09
2017-02-20T10:57:40.401Z,27.24
2017-02-20T10:58:54.130Z,27.24
2017-02-20T11:00:07.878Z,27.22
2017-02-20T11:01:21.006Z,27.09
2017-02-20T11:02:34.722Z,26.97
2017-02-20T11:03:48.439Z,26.89
2017-02-20T11:05:01.574Z,26.8
2017-02-20T11:06:15.286Z,26.84
2017-02-20T11:07:29.003Z,26.94
2017-02-20T11:08:42.732Z,27
2017-02-20T11:09:56.448Z,26.91
2017-02-20T11:11:10.177Z,26.57
2017-02-20T11:12:23.421Z,26.52
2017-02-20T11:13:36.567Z,26.67
2017-02-20T11:14:49.699Z,26.76
2017-02-20T11:16:03.464Z,26.84
2017-02-20T11:17:16.582Z,26.81
2017-02-20T11:18:29.689Z,26.91
2017-02-20T11:19:43.414Z,27.17
2017-02-20T11:20:57.158Z,27.21
2017-02-20T11:22:10.300Z,26.99
2017-02-20T11:23:23.427Z,26.92
2017-02-20T11:24:37.263Z,27.12
2017-02-20T11:25:51.009Z,27.28
2017-02-20T11:27:04.729Z,27.51
2017-02-20T11:28:18.467Z,27.51
2017-02-20T11:29:32.301Z,27.92
2017-02-20T11:30:46.023Z,28.09
2017-02-20T11:31:59.748Z,27.92
2017-02-20T11:33:13.489Z,27.78
2017-02-20T11:34:27.205Z,27.81
2017-02-20T11:35:40.910Z,27.78
2017-02-20T11:36:54.061Z,27.87
2017-02-20T11:38:07.834Z,28.22
2017-02-20T11:39:21.578Z,28.62
2017-02-20T11:40:35.278Z,28.68
2017-02-20T11:41:48.997Z,28.9
2017-02-20T11:43:02.759Z,28.56
2017-02-20T11:44:16.520Z,28.59
2017-02-20T11:45:30.248Z,28.34
2017-02-20T11:46:43.969Z,28.07
2017-02-20T11:47:57.099Z,28.34
2017-02-20T11:49:10.178Z,28.68
2017-02-20T11:50:23.305Z,28.7
2017-02-20T11:51:37.051Z,28.54
2017-02-20T11:52:50.287Z,28.89
2017-02-20T11:54:03.991Z,29.14
2017-02-20T11:55:17.755Z,29.33
2017-02-20T11:56:31.499Z,29.23
2017-02-20T11:57:44.595Z,29.41
2017-02-20T11:58:58.311Z,29.79
2017-02-20T12:00:12.019Z,30.1
2017-02-20T12:01:25.133Z,30.54
2017-02-20T12:02:38.281Z,30.76
2017-02-20T12:03:52.038Z,31.02
2017-02-20T12:05:05.804Z,30.35
2017-02-20T12:06:18.931Z,30.16
2017-02-20T12:07:32.697Z,29.97
2017-02-20T12:08:46.470Z,30.15
2017-02-20T12:10:00.187Z,30.23
2017-02-20T12:11:13.355Z,29.8
2017-02-20T12:12:27.080Z,29.76
2017-02-20T12:13:40.820Z,29.73
2017-02-20T12:14:54.581Z,29.6
2017-02-20T12:16:08.360Z,29.78
2017-02-20T12:17:21.517Z,29.97
2017-02-20T12:18:35.238Z,30.17
2017-02-20T12:19:48.949Z,30.46
2017-02-20T12:21:02.068Z,30.47
2017-02-20T12:22:15.853Z,29.78
2017-02-20T12:23:29.590Z,29.41
2017-02-20T12:24:43.313Z,29.49
2017-02-20T12:25:57.057Z,29.34
2017-02-20T12:27:10.771Z,29.33
2017-02-20T12:28:23.892Z,29.61
2017-02-20T12:29:37.633Z,30.04
2017-02-20T12:30:51.340Z,30.42
2017-02-20T12:32:05.039Z,30.89
2017-02-20T12:33:18.756Z,30.89
2017-02-20T12:34:31.884Z,30.97
2017-02-20T12:35:44.505Z,30.94
2017-02-20T12:36:58.215Z,30.95
2017-02-20T12:38:12.005Z,30.97
2017-02-20T12:39:24.584Z,30.99
2017-02-20T12:40:38.305Z,30.91
2017-02-20T12:41:51.477Z,31.26
2017-02-20T12:43:05.185Z,31.69
2017-02-20T12:44:18.875Z,31.95
2017-02-20T12:45:32.029Z,31.96
2017-02-20T12:46:45.751Z,31.84
2017-02-20T12:47:59.476Z,31.7
2017-02-20T12:49:13.211Z,31.68
2017-02-20T12:50:26.976Z,31.78
2017-02-20T12:51:40.132Z,31.73
2017-02-20T12:52:53.863Z,32.04
2017-02-20T12:54:07.630Z,32.52
2017-02-20T12:55:21.380Z,32.43
2017-02-20T12:56:35.136Z,31.75
2017-02-20T12:57:48.904Z,31.06
2017-02-20T12:59:02.076Z,30.51
2017-02-20T13:00:15.227Z,30.47
2017-02-20T13:01:28.988Z,30.69
2017-02-20T13:02:42.738Z,31.13
2017-02-20T13:03:56.509Z,31.13
2017-02-20T13:05:10.273Z,30.76
2017-02-20T13:06:23.964Z,30.8
2017-02-20T13:07:37.674Z,31.01
2017-02-20T13:08:51.387Z,30.7
2017-02-20T13:10:04.525Z,30.45
2017-02-20T13:11:17.106Z,30.53
2017-02-20T13:12:30.928Z,30.43
2017-02-20T13:13:44.663Z,30.49
2017-02-20T13:14:58.412Z,30.31
2017-02-20T13:16:11.559Z,30.13
2017-02-20T13:17:25.268Z,30.11
2017-02-20T13:18:39.007Z,30.1
2017-02-20T13:19:52.759Z,30.23
2017-02-20T13:21:05.889Z,30.45
2017-02-20T13:22:19.076Z,30.51
2017-02-20T13:23:32.823Z,30.51
2017-02-20T13:24:46.586Z,30.61
2017-02-20T13:26:00.311Z,30.61
2017-02-20T13:27:14.046Z,30.57
2017-02-20T13:28:27.820Z,30.7
2017-02-20T13:29:41.533Z,31.02
2017-02-20T13:30:55.217Z,31.51
2017-02-20T13:32:08.983Z,31.56
2017-02-20T13:33:22.103Z,31.96
2017-02-20T13:34:35.279Z,32.25
2017-02-20T13:35:48.986Z,32.29
2017-02-20T13:37:02.116Z,32.47
2017-02-20T13:38:15.841Z,32.65
2017-02-20T13:39:28.990Z,32.81
2017-02-20T13:40:42.696Z,32.69
2017-02-20T13:41:55.265Z,32.29
2017-02-20T13:43:08.963Z,32.11
2017-02-20T13:44:22.124Z,31.95
2017-02-20T13:45:35.849Z,31.78
2017-02-20T13:46:49.573Z,31.69
2017-02-20T13:48:02.713Z,31.86
2017-02-20T13:49:16.482Z,32.18
2017-02-20T13:50:29.613Z,32.44
2017-02-20T13:51:43.396Z,32.88
2017-02-20T13:52:57.119Z,33.37
2017-02-20T13:54:10.246Z,33.47
2017-02-20T13:55:23.994Z,33.63
2017-02-20T13:56:37.738Z,33.65
2017-02-20T13:57:51.455Z,33.18
2017-02-20T13:59:04.001Z,32.82
2017-02-20T14:00:17.133Z,32.3
2017-02-20T14:01:30.272Z,32.13
2017-02-20T14:02:43.416Z,31.73
2017-02-20T14:03:57.182Z,31.76
2017-02-20T14:05:10.963Z,31.69
2017-02-20T14:06:24.737Z,31.91
2017-02-20T14:07:38.506Z,32.25
2017-02-20T14:08:51.067Z,32.82
2017-02-20T14:10:04.820Z,32.82
2017-02-20T14:11:16.810Z,32.89
2017-02-20T14:12:29.989Z,32.72
2017-02-20T14:13:43.160Z,32.51
2017-02-20T14:14:56.289Z,32.32
2017-02-20T14:16:10.029Z,32.6
2017-02-20T14:17:23.787Z,32.96
2017-02-20T14:18:37.561Z,33.23
2017-02-20T14:19:50.164Z,33.57
2017-02-20T14:21:03.342Z,33.6
2017-02-20T14:22:17.081Z,33.54
2017-02-20T14:23:30.253Z,33.61
2017-02-20T14:24:43.941Z,33.56
2017-02-20T14:25:57.703Z,33.71
2017-02-20T14:27:10.854Z,33.95
2017-02-20T14:28:23.988Z,34.27
2017-02-20T14:29:37.714Z,34.69
2017-02-20T14:30:51.529Z,34.97
2017-02-20T14:32:04.781Z,35.31
2017-02-20T14:33:18.518Z,35.55
2017-02-20T14:34:31.670Z,35.58
2017-02-20T14:35:45.383Z,35.36
2017-02-20T14:36:57.929Z,35.34
2017-02-20T14:38:11.067Z,35.37
2017-02-20T14:39:24.829Z,35.34
2017-02-20T14:40:38.587Z,35.44
2017-02-20T14:41:52.396Z,35.65
2017-02-20T14:43:06.127Z,35.41
2017-02-20T14:44:19.876Z,34.7
2017-02-20T14:45:33.015Z,34.09
2017-02-20T14:46:46.755Z,34.15
2017-02-20T14:48:00.455Z,34.28
2017-02-20T14:49:13.578Z,34.56
2017-02-20T14:50:26.754Z,34.92
2017-02-20T14:51:40.471Z,35.16
2017-02-20T14:52:54.210Z,35.31
2017-02-20T14:54:07.980Z,35.25
2017-02-20T14:55:21.753Z,34.61
2017-02-20T14:56:35.488Z,34.13
2017-02-20T14:57:49.207Z,33.6
2017-02-20T14:59:02.969Z,33.47
2017-02-20T15:00:16.697Z,33.61
2017-02-20T15:01:29.822Z,33.91
2017-02-20T15:02:43.557Z,34.09
2017-02-20T15:03:57.408Z,34.16
2017-02-20T15:05:10.585Z,34.19
2017-02-20T15:06:24.400Z,34.25
2017-02-20T15:07:38.099Z,34.49
2017-02-20T15:08:51.844Z,34.72
2017-02-20T15:10:05.045Z,35.15
2017-02-20T15:11:18.787Z,35.53
2017-02-20T15:12:32.571Z,35.7
2017-02-20T15:13:46.350Z,35.65
2017-02-20T15:15:00.088Z,34.96
2017-02-20T15:16:12.655Z,34.87
2017-02-20T15:17:26.579Z,35.16
2017-02-20T15:18:40.305Z,35.44
2017-02-20T15:19:54.037Z,35.43
2017-02-20T15:21:07.825Z,35.11
2017-02-20T15:22:20.962Z,35.22
2017-02-20T15:23:34.686Z,35.22
2017-02-20T15:24:47.828Z,35.34
2017-02-20T15:26:01.568Z,35.65
2017-02-20T15:27:14.734Z,35.97
2017-02-20T15:28:27.883Z,36.05
2017-02-20T15:29:41.671Z,36.12
2017-02-20T15:30:55.400Z,36.2
2017-02-20T15:32:09.136Z,36.59
2017-02-20T15:33:22.882Z,36.44
2017-02-20T15:34:36.027Z,36.73
2017-02-20T15:35:49.190Z,37.07
2017-02-20T15:37:02.997Z,37.49
2017-02-20T15:38:16.724Z,37.5
2017-02-20T15:39:30.505Z,37.46
2017-02-20T15:40:44.264Z,37.63
2017-02-20T15:41:58.051Z,37.39
2017-02-20T15:43:11.787Z,37.62
2017-02-20T15:44:25.573Z,37.37
2017-02-20T15:45:39.347Z,36.66
2017-02-20T15:46:53.065Z,35.87
2017-02-20T15:48:06.824Z,35.38
2017-02-20T15:49:20.545Z,35.26
2017-02-20T15:50:34.267Z,35.21
2017-02-20T15:51:48.006Z,35.36